Time;durP1;ratioP1;P1;durP2;ratioP2;P2;SDS_P1;SDS_P2;PMS_P1;PMS_P2;Temp;Humidity;BMP_temperature;BMP_pressure;BME280_temperature;BME280_humidity;BME280_pressure;Samples;Min_cycle;Max_cycle;Signal;HPM_P1;HPM_P2
2023/07/21 00:02:22;;;;;;;12.73;11.43;;;15.70;97.50;;;;;;4952701;28;89990;-76
2023/07/21 00:04:48;;;;;;;14.23;12.65;;;15.70;97.40;;;;;;4953109;28;89207;-76
2023/07/21 00:07:13;;;;;;;15.65;12.40;;;15.70;97.70;;;;;;4953927;28;88115;-76
2023/07/21 00:09:39;;;;;;;13.93;12.45;;;15.70;97.60;;;;;;4954177;28;87704;-76
2023/07/21 00:12:05;;;;;;;15.23;12.25;;;15.70;97.60;;;;;;4954237;28;87860;-76
2023/07/21 00:14:31;;;;;;;18.25;12.57;;;15.70;97.70;;;;;;4952626;28;88609;-76
2023/07/21 00:16:56;;;;;;;18.35;12.65;;;15.70;97.80;;;;;;4954085;28;87701;-76
2023/07/21 00:19:22;;;;;;;14.63;12.35;;;15.70;97.80;;;;;;4953835;28;87465;-76
2023/07/21 00:21:48;;;;;;;11.98;10.27;;;15.70;97.60;;;;;;4953323;28;88564;-76
2023/07/21 00:24:13;;;;;;;16.10;11.95;;;15.70;97.50;;;;;;4952798;28;88406;-76
2023/07/21 00:26:39;;;;;;;16.80;12.10;;;15.70;97.50;;;;;;4951996;28;88679;-76
2023/07/21 00:29:06;;;;;;;19.27;11.60;;;15.70;97.50;;;;;;4955677;28;87916;-76
2023/07/21 00:31:31;;;;;;;13.43;10.50;;;15.70;97.50;;;;;;4956361;28;88742;-76
2023/07/21 00:33:57;;;;;;;14.25;12.85;;;15.70;97.40;;;;;;4957039;28;88768;-76
2023/07/21 00:36:23;;;;;;;13.45;11.18;;;15.70;97.50;;;;;;4956470;28;87902;-76
2023/07/21 00:38:49;;;;;;;14.45;12.80;;;15.70;97.60;;;;;;4957698;28;87554;-76
2023/07/21 00:41:15;;;;;;;14.60;13.10;;;15.70;97.60;;;;;;4955142;28;88545;-76
2023/07/21 00:43:41;;;;;;;15.23;11.07;;;15.70;97.70;;;;;;4956719;28;88470;-76
2023/07/21 00:46:07;;;;;;;16.05;11.32;;;15.70;97.60;;;;;;4956909;28;87858;-76
2023/07/21 00:48:33;;;;;;;16.40;12.20;;;15.70;97.60;;;;;;4957008;28;87576;-75
2023/07/21 00:50:59;;;;;;;11.63;10.20;;;15.70;97.70;;;;;;4938409;28;91307;-75
2023/07/21 00:53:26;;;;;;;13.50;12.00;;;15.70;97.70;;;;;;4955131;28;87961;-76
2023/07/21 00:55:52;;;;;;;15.30;12.38;;;15.70;97.40;;;;;;4957293;28;87498;-75
2023/07/21 00:58:19;;;;;;;16.13;12.10;;;15.70;97.50;;;;;;4937914;28;88858;-76
2023/07/21 01:00:46;;;;;;;14.63;11.27;;;15.70;97.50;;;;;;4956209;28;87660;-76
2023/07/21 01:03:13;;;;;;;12.95;10.82;;;15.70;97.50;;;;;;4957454;28;87509;-75
2023/07/21 01:05:45;;;;;;;15.73;12.57;;;15.70;97.20;;;;;;4956279;28;87786;-76
2023/07/21 01:08:11;;;;;;;16.48;11.85;;;15.70;97.50;;;;;;4955986;28;86756;-76
2023/07/21 01:10:38;;;;;;;16.95;10.73;;;15.70;97.20;;;;;;4955807;28;87809;-76
2023/07/21 01:13:05;;;;;;;10.65;9.55;;;15.70;97.10;;;;;;4955926;28;88340;-76
2023/07/21 01:15:34;;;;;;;13.05;9.13;;;15.70;97.00;;;;;;4955541;28;88664;-76
2023/07/21 01:18:01;;;;;;;13.13;9.65;;;15.70;96.90;;;;;;4957069;28;87596;-76
2023/07/21 01:20:28;;;;;;;12.55;10.82;;;15.70;96.80;;;;;;4956330;28;88313;-75
2023/07/21 01:22:56;;;;;;;11.98;10.05;;;15.70;96.90;;;;;;4955179;28;88445;-76
2023/07/21 01:25:23;;;;;;;10.98;8.65;;;15.70;96.80;;;;;;4955168;28;87674;-76
2023/07/21 01:27:50;;;;;;;15.00;11.48;;;15.70;96.70;;;;;;4956345;28;87636;-76
2023/07/21 01:30:18;;;;;;;12.77;11.13;;;15.70;96.80;;;;;;4938785;28;91207;-76
2023/07/21 01:32:46;;;;;;;13.57;10.75;;;15.70;97.00;;;;;;4956488;28;93044;-75
2023/07/21 01:35:15;;;;;;;14.48;12.77;;;15.70;96.90;;;;;;4955697;28;87810;-76
2023/07/21 01:37:42;;;;;;;21.23;14.48;;;15.70;97.10;;;;;;4937088;28;90845;-75
2023/07/21 01:40:11;;;;;;;21.92;13.98;;;15.70;97.30;;;;;;4955744;28;88662;-76
2023/07/21 01:42:37;;;;;;;16.88;14.00;;;15.70;97.50;;;;;;4955823;28;88924;-75
2023/07/21 01:45:04;;;;;;;18.92;14.90;;;15.70;97.50;;;;;;4956319;28;87837;-76
2023/07/21 01:47:31;;;;;;;19.17;15.23;;;15.70;97.60;;;;;;4954229;28;87709;-76
2023/07/21 01:49:58;;;;;;;29.08;15.30;;;15.70;97.80;;;;;;4955509;28;88588;-75
2023/07/21 01:52:28;;;;;;;18.08;14.60;;;15.70;97.80;;;;;;4955670;28;87829;-76
2023/07/21 01:55:18;;;;;;;20.27;14.95;;;15.60;97.80;;;;;;4955737;28;87599;-76
2023/07/21 01:57:49;;;;;;;18.45;13.35;;;15.60;97.80;;;;;;4956262;28;86847;-76
2023/07/21 02:00:16;;;;;;;22.23;15.05;;;15.60;97.60;;;;;;4955448;28;89246;-76
2023/07/21 02:02:44;;;;;;;19.75;13.45;;;15.50;97.60;;;;;;4955849;28;93941;-76
2023/07/21 02:05:25;;;;;;;22.48;14.60;;;15.50;97.70;;;;;;4954687;28;88461;-76
2023/07/21 02:07:51;;;;;;;17.77;12.90;;;15.50;97.60;;;;;;4955682;28;87843;-76
2023/07/21 02:10:17;;;;;;;16.05;12.35;;;15.50;97.60;;;;;;4955750;28;88464;-76
2023/07/21 02:12:43;;;;;;;26.50;15.90;;;15.50;97.50;;;;;;4955847;28;87819;-76
2023/07/21 02:15:09;;;;;;;18.50;13.38;;;15.40;97.60;;;;;;4956009;28;87639;-76
2023/07/21 02:17:36;;;;;;;19.45;13.48;;;15.40;97.40;;;;;;4954084;28;87493;-76
2023/07/21 02:20:08;;;;;;;13.80;12.40;;;15.40;97.30;;;;;;4956099;28;88414;-77
2023/07/21 02:22:43;;;;;;;14.13;11.82;;;15.40;97.10;;;;;;4954803;28;87490;-76
2023/07/21 02:25:09;;;;;;;19.13;12.35;;;15.40;97.00;;;;;;4955137;28;87858;-76
2023/07/21 02:27:35;;;;;;;17.17;13.32;;;15.30;96.80;;;;;;4954897;28;87278;-76
2023/07/21 02:30:02;;;;;;;18.85;13.60;;;15.30;96.80;;;;;;4953872;28;89617;-76
2023/07/21 02:32:28;;;;;;;13.82;10.18;;;15.30;96.90;;;;;;4953458;28;92601;-76
2023/07/21 02:34:55;;;;;;;16.35;9.93;;;15.20;96.60;;;;;;4954897;28;87905;-76
2023/07/21 02:37:20;;;;;;;14.80;10.68;;;15.20;96.50;;;;;;4954781;28;87891;-76
2023/07/21 02:39:46;;;;;;;18.55;11.10;;;15.10;96.40;;;;;;4954683;28;88212;-76
2023/07/21 02:42:12;;;;;;;14.23;10.48;;;15.10;96.30;;;;;;4954907;28;88492;-76
2023/07/21 02:44:37;;;;;;;15.15;9.57;;;15.10;96.20;;;;;;4936714;28;87762;-76
2023/07/21 02:47:03;;;;;;;15.68;9.23;;;15.10;96.20;;;;;;4955382;28;87329;-76
2023/07/21 02:49:30;;;;;;;14.88;11.88;;;15.00;96.10;;;;;;4955046;28;88070;-76
2023/07/21 02:51:56;;;;;;;12.73;11.20;;;15.00;96.10;;;;;;4954456;28;88479;-76
2023/07/21 02:54:21;;;;;;;15.15;11.18;;;14.90;96.30;;;;;;4954858;28;88527;-76
2023/07/21 02:56:47;;;;;;;13.57;10.13;;;14.90;96.10;;;;;;4955972;28;87606;-76
2023/07/21 02:59:13;;;;;;;14.38;9.60;;;14.90;96.00;;;;;;4954852;28;87569;-76
2023/07/21 03:01:39;;;;;;;13.95;9.07;;;14.80;96.00;;;;;;4955555;28;88660;-76
2023/07/21 03:04:05;;;;;;;14.80;10.60;;;14.80;96.00;;;;;;4954457;28;88002;-76
2023/07/21 03:06:31;;;;;;;13.90;9.60;;;14.70;96.30;;;;;;4953132;28;87684;-76
2023/07/21 03:08:57;;;;;;;13.77;8.95;;;14.70;96.50;;;;;;4955422;28;88753;-76
2023/07/21 03:11:23;;;;;;;11.65;7.85;;;14.60;96.70;;;;;;4954389;28;89188;-76
2023/07/21 03:13:48;;;;;;;8.63;6.43;;;14.60;96.80;;;;;;4953602;28;87637;-76
2023/07/21 03:16:14;;;;;;;7.95;7.07;;;14.50;96.90;;;;;;4954125;28;87825;-76
2023/07/21 03:18:40;;;;;;;11.02;7.28;;;14.40;97.00;;;;;;4954294;28;89285;-76
2023/07/21 03:21:05;;;;;;;8.82;7.68;;;14.40;97.00;;;;;;4956269;28;89059;-76
2023/07/21 03:23:31;;;;;;;11.07;8.38;;;14.40;97.00;;;;;;4955082;28;87879;-76
2023/07/21 03:25:57;;;;;;;16.80;10.68;;;14.30;96.90;;;;;;4955357;28;87752;-76
2023/07/21 03:28:23;;;;;;;12.13;9.05;;;14.30;97.10;;;;;;4934598;28;91621;-76
2023/07/21 03:31:01;;;;;;;11.32;8.77;;;14.30;97.10;;;;;;4954378;28;88305;-76
2023/07/21 03:33:27;;;;;;;12.35;9.55;;;14.30;97.00;;;;;;4954891;28;87406;-76
2023/07/21 03:36:01;;;;;;;14.95;9.30;;;14.20;97.10;;;;;;4956278;28;87356;-76
2023/07/21 03:38:30;;;;;;;13.27;9.70;;;14.20;97.30;;;;;;4954614;28;88597;-76
2023/07/21 03:41:00;;;;;;;13.80;9.63;;;14.20;97.50;;;;;;4953434;28;88920;-76
2023/07/21 03:43:26;;;;;;;25.85;10.93;;;14.10;97.70;;;;;;4953993;28;88839;-76
2023/07/21 03:45:58;;;;;;;24.50;12.00;;;14.10;97.90;;;;;;4954585;28;88340;-78
2023/07/21 03:48:25;;;;;;;37.08;14.00;;;14.10;98.10;;;;;;4954661;28;88662;-76
2023/07/21 03:50:51;;;;;;;53.55;15.23;;;14.10;98.40;;;;;;4955098;28;88763;-76
2023/07/21 03:53:16;;;;;;;31.58;15.63;;;14.00;98.70;;;;;;4954260;28;87777;-76
2023/07/21 03:55:43;;;;;;;22.65;15.82;;;14.00;98.80;;;;;;4954214;28;87642;-76
2023/07/21 03:58:09;;;;;;;21.23;15.32;;;14.00;98.90;;;;;;4953826;28;88717;-76
2023/07/21 04:00:35;;;;;;;28.45;15.45;;;14.10;99.00;;;;;;4954081;28;87365;-76
2023/07/21 04:03:00;;;;;;;17.58;15.45;;;14.10;99.00;;;;;;4954700;28;87520;-76
2023/07/21 04:05:26;;;;;;;65.03;17.23;;;14.10;99.00;;;;;;4956515;28;87913;-76
2023/07/21 04:07:52;;;;;;;24.33;15.13;;;14.10;99.00;;;;;;4956894;28;88909;-76
2023/07/21 04:10:17;;;;;;;33.63;16.50;;;14.10;99.00;;;;;;4955911;28;88983;-76
2023/07/21 04:12:43;;;;;;;21.45;15.30;;;14.00;98.90;;;;;;4956917;28;87592;-76
2023/07/21 04:15:08;;;;;;;26.48;15.73;;;14.00;98.90;;;;;;4957697;28;87611;-76
2023/07/21 04:17:34;;;;;;;33.70;16.40;;;14.00;99.00;;;;;;4956503;28;89216;-76
2023/07/21 04:20:00;;;;;;;23.42;15.77;;;14.00;99.10;;;;;;4956689;28;88294;-76
2023/07/21 04:22:25;;;;;;;17.60;15.70;;;14.00;99.20;;;;;;4956889;28;87407;-76
2023/07/21 04:24:51;;;;;;;17.60;15.23;;;14.10;99.10;;;;;;4957524;28;86437;-76
2023/07/21 04:27:16;;;;;;;21.63;17.15;;;14.00;99.10;;;;;;4956801;28;88572;-76
2023/07/21 04:29:42;;;;;;;23.55;16.52;;;14.10;99.10;;;;;;4957790;28;88090;-76
2023/07/21 04:32:07;;;;;;;27.98;16.60;;;14.10;99.00;;;;;;4957061;28;88782;-76
2023/07/21 04:34:33;;;;;;;22.92;16.58;;;14.10;99.00;;;;;;4955836;28;87719;-76
2023/07/21 04:36:59;;;;;;;25.15;16.08;;;14.10;98.90;;;;;;4957274;28;89100;-76
2023/07/21 04:39:25;;;;;;;21.90;14.88;;;14.10;98.80;;;;;;4957148;28;87788;-76
2023/07/21 04:41:50;;;;;;;26.58;15.27;;;14.10;98.90;;;;;;4957730;28;87515;-77
2023/07/21 04:44:16;;;;;;;37.53;15.77;;;14.20;98.80;;;;;;4957464;28;89447;-76
2023/07/21 04:46:42;;;;;;;39.10;16.17;;;14.20;98.80;;;;;;4957729;28;88658;-77
2023/07/21 04:49:09;;;;;;;21.90;16.48;;;14.10;98.80;;;;;;4956965;28;88588;-76
2023/07/21 04:51:34;;;;;;;25.02;17.70;;;14.10;98.90;;;;;;4956938;28;87711;-77
2023/07/21 04:54:00;;;;;;;35.22;17.20;;;14.10;99.10;;;;;;4948350;28;90868;-77
2023/07/21 04:56:26;;;;;;;27.90;19.20;;;14.10;99.20;;;;;;4955647;28;89362;-79
2023/07/21 04:58:52;;;;;;;35.25;19.13;;;14.10;99.30;;;;;;4958327;28;88355;-78
2023/07/21 05:01:17;;;;;;;52.75;19.38;;;14.20;99.20;;;;;;4938255;28;87745;-76
2023/07/21 05:03:43;;;;;;;46.53;19.90;;;14.20;99.30;;;;;;4956993;28;87872;-75
2023/07/21 05:06:12;;;;;;;56.08;20.50;;;14.20;99.30;;;;;;4957233;28;88463;-77
2023/07/21 05:08:37;;;;;;;50.20;21.15;;;14.20;99.30;;;;;;4955367;28;88569;-76
2023/07/21 05:11:03;;;;;;;61.13;20.70;;;14.20;99.40;;;;;;4955271;28;89113;-76
2023/07/21 05:13:28;;;;;;;43.42;20.48;;;14.20;99.50;;;;;;4953966;28;89458;-77
2023/07/21 05:15:54;;;;;;;69.38;20.02;;;14.30;99.40;;;;;;4956519;28;88266;-79
2023/07/21 05:18:20;;;;;;;26.05;19.58;;;14.30;99.40;;;;;;4937729;28;91745;-77
2023/07/21 05:20:45;;;;;;;28.65;18.98;;;14.30;99.40;;;;;;4956518;28;88467;-76
2023/07/21 05:23:11;;;;;;;26.33;19.50;;;14.40;99.30;;;;;;4957348;28;92752;-77
2023/07/21 05:25:37;;;;;;;34.50;20.45;;;14.50;99.30;;;;;;4956746;28;88239;-77
2023/07/21 05:28:03;;;;;;;35.40;19.13;;;14.60;99.30;;;;;;4956910;28;88553;-77
2023/07/21 05:30:28;;;;;;;24.63;20.52;;;14.60;99.30;;;;;;4954786;28;87710;-77
2023/07/21 05:32:56;;;;;;;30.83;21.33;;;14.70;99.30;;;;;;4957046;28;87962;-77
2023/07/21 05:35:23;;;;;;;31.38;22.40;;;14.70;99.20;;;;;;4956039;28;90694;-77
2023/07/21 05:37:48;;;;;;;25.95;21.60;;;14.80;99.30;;;;;;4955879;28;88967;-78
2023/07/21 05:40:14;;;;;;;31.75;20.05;;;14.90;99.30;;;;;;4955313;28;87518;-77
2023/07/21 05:42:39;;;;;;;25.48;20.52;;;14.90;99.20;;;;;;4937614;28;89689;-78
2023/07/21 05:45:06;;;;;;;30.38;19.95;;;15.00;98.90;;;;;;4955322;28;90057;-78
2023/07/21 05:47:32;;;;;;;28.92;20.42;;;15.00;98.60;;;;;;4937935;28;92905;-78
2023/07/21 05:50:00;;;;;;;30.92;20.38;;;15.10;98.80;;;;;;4955411;28;88412;-78
2023/07/21 05:52:27;;;;;;;30.65;21.95;;;15.10;98.70;;;;;;4937264;28;89209;-78
2023/07/21 05:54:53;;;;;;;33.08;23.00;;;15.20;98.60;;;;;;4955800;28;88596;-78
2023/07/21 05:57:19;;;;;;;27.92;22.42;;;15.20;98.60;;;;;;4955566;28;88161;-78
2023/07/21 05:59:47;;;;;;;26.13;21.35;;;15.20;98.60;;;;;;4956388;28;87881;-77
2023/07/21 06:02:13;;;;;;;23.92;21.33;;;15.30;98.70;;;;;;4956231;28;88136;-78
2023/07/21 06:04:39;;;;;;;23.45;19.75;;;15.40;98.80;;;;;;4937212;28;92020;-78
2023/07/21 06:07:04;;;;;;;23.10;20.23;;;15.40;98.60;;;;;;4937838;28;91615;-78
2023/07/21 06:09:30;;;;;;;24.42;19.83;;;15.50;98.50;;;;;;4955451;28;88932;-78
2023/07/21 06:11:55;;;;;;;31.77;21.60;;;15.60;98.40;;;;;;4938480;28;89200;-78
2023/07/21 06:14:21;;;;;;;37.38;23.02;;;15.70;98.50;;;;;;4955282;28;87845;-78
2023/07/21 06:16:47;;;;;;;36.95;23.50;;;15.90;98.50;;;;;;4956025;28;87924;-78
2023/07/21 06:19:12;;;;;;;26.65;22.10;;;16.00;98.40;;;;;;4938095;28;88348;-77
2023/07/21 06:21:39;;;;;;;31.60;24.50;;;16.10;98.30;;;;;;4937550;28;90994;-77
2023/07/21 06:24:04;;;;;;;34.22;24.92;;;16.30;98.30;;;;;;4955760;28;88959;-78
2023/07/21 06:26:30;;;;;;;31.08;24.80;;;16.40;97.60;;;;;;4954187;28;89239;-78
2023/07/21 06:28:56;;;;;;;31.95;25.20;;;16.50;97.10;;;;;;4937078;28;87352;-78
2023/07/21 06:31:23;;;;;;;32.47;25.52;;;16.60;97.10;;;;;;4955975;28;87715;-78
2023/07/21 06:33:49;;;;;;;33.13;24.77;;;16.70;97.00;;;;;;4954791;28;90537;-77
2023/07/21 06:36:17;;;;;;;34.22;25.98;;;16.80;97.00;;;;;;4955023;28;89327;-77
2023/07/21 06:38:43;;;;;;;32.30;24.30;;;17.00;96.50;;;;;;4956193;28;88649;-78
2023/07/21 06:41:09;;;;;;;31.55;24.30;;;17.10;96.30;;;;;;4955111;28;87488;-78
2023/07/21 06:43:34;;;;;;;26.38;21.52;;;17.20;95.90;;;;;;4936902;28;90238;-78
2023/07/21 06:46:02;;;;;;;29.15;23.05;;;17.30;95.90;;;;;;4954128;28;87651;-77
2023/07/21 06:48:28;;;;;;;31.02;23.83;;;17.40;96.30;;;;;;4954681;28;88058;-77
2023/07/21 06:50:54;;;;;;;33.10;25.73;;;17.60;96.30;;;;;;4956375;28;88223;-78
2023/07/21 06:53:19;;;;;;;34.63;26.63;;;17.70;96.20;;;;;;4935307;28;91730;-77
2023/07/21 06:55:49;;;;;;;34.00;26.48;;;17.90;96.00;;;;;;4935662;28;91515;-77
2023/07/21 06:58:14;;;;;;;31.92;24.75;;;18.00;95.80;;;;;;4953406;28;88676;-77
2023/07/21 07:00:40;;;;;;;36.92;27.02;;;18.10;94.70;;;;;;4953989;28;87572;-77
2023/07/21 07:03:06;;;;;;;31.73;24.20;;;18.20;94.40;;;;;;4937441;28;90725;-77
2023/07/21 07:05:31;;;;;;;30.55;25.30;;;18.30;94.00;;;;;;4944605;28;89045;-77
2023/07/21 07:07:57;;;;;;;31.88;25.83;;;18.40;93.50;;;;;;4936709;28;87567;-77
2023/07/21 07:10:25;;;;;;;33.45;24.55;;;18.50;92.90;;;;;;4953348;28;88186;-76
2023/07/21 07:12:51;;;;;;;32.45;26.13;;;18.50;92.80;;;;;;4953447;28;88261;-77
2023/07/21 07:15:17;;;;;;;35.95;26.80;;;18.60;93.50;;;;;;4954876;28;88440;-77
2023/07/21 07:17:45;;;;;;;29.17;24.02;;;18.80;93.70;;;;;;4955411;28;88060;-77
2023/07/21 07:20:11;;;;;;;29.27;22.67;;;18.80;92.60;;;;;;4953758;28;87872;-77
2023/07/21 07:22:38;;;;;;;31.30;24.25;;;18.90;92.90;;;;;;4954246;28;89464;-77
2023/07/21 07:25:04;;;;;;;31.02;24.10;;;19.10;92.40;;;;;;4936616;28;90827;-77
2023/07/21 07:27:30;;;;;;;29.45;23.73;;;19.10;91.70;;;;;;4954277;28;87795;-76
2023/07/21 07:29:55;;;;;;;31.00;25.08;;;19.20;92.10;;;;;;4955728;28;88042;-76
2023/07/21 07:32:21;;;;;;;34.30;26.55;;;19.30;91.80;;;;;;4953502;28;88856;-76
2023/07/21 07:34:47;;;;;;;34.97;26.77;;;19.30;91.80;;;;;;4953923;28;87795;-77
2023/07/21 07:37:13;;;;;;;31.23;25.42;;;19.40;92.20;;;;;;4954415;28;87692;-77
2023/07/21 07:39:39;;;;;;;29.55;24.58;;;19.50;91.50;;;;;;4954260;28;88116;-76
2023/07/21 07:42:05;;;;;;;30.52;24.38;;;19.60;91.80;;;;;;4955084;28;88702;-77
2023/07/21 07:44:30;;;;;;;30.73;24.90;;;19.80;92.00;;;;;;4953393;28;89095;-77
2023/07/21 07:46:56;;;;;;;34.05;26.08;;;19.80;91.30;;;;;;4952467;28;88374;-76
2023/07/21 07:49:22;;;;;;;31.70;25.15;;;19.90;90.70;;;;;;4954691;28;87512;-77
2023/07/21 07:51:48;;;;;;;31.52;26.00;;;19.90;90.50;;;;;;4934929;28;91872;-77
2023/07/21 07:54:14;;;;;;;27.50;22.95;;;19.80;90.10;;;;;;4954641;28;88282;-77
2023/07/21 07:56:40;;;;;;;32.25;23.88;;;19.80;90.40;;;;;;4954165;28;87708;-77
2023/07/21 07:59:06;;;;;;;30.38;24.38;;;19.90;90.20;;;;;;4953731;28;87287;-77
2023/07/21 08:01:32;;;;;;;33.03;26.15;;;19.90;90.40;;;;;;4935967;28;91725;-77
2023/07/21 08:03:58;;;;;;;33.40;24.90;;;20.00;90.90;;;;;;4936110;28;91280;-77
2023/07/21 08:06:24;;;;;;;29.45;24.10;;;20.10;90.30;;;;;;4953905;28;87717;-77
2023/07/21 08:08:50;;;;;;;29.42;23.92;;;20.10;89.20;;;;;;4955123;28;87661;-77
2023/07/21 08:11:15;;;;;;;28.42;23.48;;;20.20;90.00;;;;;;4952317;28;90178;-78
2023/07/21 08:13:41;;;;;;;28.40;21.50;;;20.20;89.50;;;;;;4953444;28;89684;-77
2023/07/21 08:16:12;;;;;;;25.58;21.42;;;20.20;89.10;;;;;;4955011;28;87588;-77
2023/07/21 08:18:37;;;;;;;26.65;21.92;;;20.30;90.40;;;;;;4954003;28;87442;-77
2023/07/21 08:21:18;;;;;;;24.73;20.38;;;20.40;90.10;;;;;;4954933;28;88554;-78
2023/07/21 08:23:44;;;;;;;25.33;20.90;;;20.50;89.40;;;;;;4954006;28;92827;-77
2023/07/21 08:26:10;;;;;;;31.20;22.70;;;20.50;87.40;;;;;;4954539;28;87335;-77
2023/07/21 08:28:35;;;;;;;20.77;17.73;;;20.50;89.20;;;;;;4953772;28;86992;-77
2023/07/21 08:31:01;;;;;;;18.58;16.55;;;20.60;88.00;;;;;;4935091;28;90092;-78
2023/07/21 08:33:27;;;;;;;22.77;19.52;;;20.60;87.20;;;;;;4935292;28;91883;-77
2023/07/21 08:35:52;;;;;;;20.00;17.40;;;20.80;88.10;;;;;;4936551;28;88853;-77
2023/07/21 08:38:18;;;;;;;17.25;15.30;;;20.90;85.60;;;;;;4935303;28;90536;-77
2023/07/21 08:40:54;;;;;;;18.65;16.55;;;21.00;86.10;;;;;;4952992;28;88745;-78
2023/07/21 08:43:20;;;;;;;19.30;17.27;;;21.00;84.70;;;;;;4954068;28;88415;-77
2023/07/21 08:45:49;;;;;;;20.23;16.30;;;21.10;84.20;;;;;;4953499;28;87685;-78
2023/07/21 08:48:17;;;;;;;19.40;14.85;;;21.20;86.40;;;;;;4936372;28;90972;-78
2023/07/21 08:50:47;;;;;;;16.13;14.45;;;21.30;82.30;;;;;;4939294;28;94627;-78
2023/07/21 08:53:13;;;;;;;18.25;14.05;;;21.40;85.10;;;;;;4957499;28;87889;-78
2023/07/21 08:55:39;;;;;;;14.85;11.90;;;21.60;83.80;;;;;;4957643;28;87467;-78
2023/07/21 08:58:06;;;;;;;7.63;6.82;;;21.80;78.40;;;;;;4957147;28;88758;-78
2023/07/21 09:00:31;;;;;;;11.52;10.13;;;21.90;77.90;;;;;;4957052;28;89613;-78
2023/07/21 09:02:59;;;;;;;11.25;10.15;;;22.20;75.30;;;;;;4958232;28;89684;-78
2023/07/21 09:05:26;;;;;;;11.77;10.50;;;22.30;75.80;;;;;;4955712;28;87576;-78
2023/07/21 09:07:51;;;;;;;11.10;9.80;;;22.40;72.40;;;;;;4938607;28;90793;-78
2023/07/21 09:10:31;;;;;;;13.05;9.95;;;22.50;74.20;;;;;;4939557;28;90773;-78
2023/07/21 09:12:57;;;;;;;11.43;10.02;;;22.60;73.40;;;;;;4956998;28;87997;-78
2023/07/21 09:15:22;;;;;;;9.20;8.25;;;22.70;73.00;;;;;;4956745;28;88789;-78
2023/07/21 09:17:48;;;;;;;10.30;8.07;;;22.80;71.40;;;;;;4958142;28;88018;-78
2023/07/21 09:20:14;;;;;;;12.63;9.10;;;22.90;71.70;;;;;;4939634;28;90629;-78
2023/07/21 09:22:40;;;;;;;10.98;8.50;;;23.00;69.20;;;;;;4956238;28;88291;-78
2023/07/21 09:25:08;;;;;;;11.38;9.88;;;23.00;70.50;;;;;;4957485;28;88295;-78
2023/07/21 09:27:38;;;;;;;11.85;9.27;;;23.10;71.70;;;;;;4957688;28;87529;-78
2023/07/21 09:30:04;;;;;;;11.32;10.13;;;23.20;70.20;;;;;;4957940;28;89115;-78
2023/07/21 09:32:38;;;;;;;12.45;11.13;;;23.20;68.60;;;;;;4937571;28;90344;-78
2023/07/21 09:35:05;;;;;;;13.23;10.98;;;23.20;67.60;;;;;;4956060;28;87575;-78
2023/07/21 09:37:33;;;;;;;11.50;9.88;;;23.10;68.10;;;;;;4937604;28;90701;-78
2023/07/21 09:40:00;;;;;;;10.68;9.43;;;23.10;68.80;;;;;;4956915;28;88722;-78
2023/07/21 09:42:28;;;;;;;11.55;10.35;;;23.20;70.10;;;;;;4956803;28;87419;-78
2023/07/21 09:44:55;;;;;;;10.57;9.38;;;23.20;68.30;;;;;;4957650;28;87499;-78
2023/07/21 09:47:22;;;;;;;10.20;9.18;;;23.00;69.10;;;;;;4957011;28;88372;-77
2023/07/21 09:49:49;;;;;;;10.82;9.52;;;22.80;69.60;;;;;;4955689;28;92802;-78
2023/07/21 09:52:16;;;;;;;11.55;9.27;;;22.80;69.00;;;;;;4957337;28;89501;-78
2023/07/21 09:54:47;;;;;;;10.57;8.85;;;22.70;69.80;;;;;;4958105;28;87553;-78
2023/07/21 09:57:16;;;;;;;10.38;9.32;;;22.60;69.30;;;;;;4958395;28;87492;-78
2023/07/21 09:59:49;;;;;;;11.75;9.82;;;22.60;69.10;;;;;;4938387;28;95418;-78
2023/07/21 10:02:16;;;;;;;14.27;9.37;;;22.60;71.40;;;;;;4956929;28;87833;-78
2023/07/21 10:04:44;;;;;;;11.90;10.65;;;22.60;70.40;;;;;;4956797;28;87846;-78
2023/07/21 10:07:12;;;;;;;11.45;10.00;;;22.60;69.30;;;;;;4956903;28;87431;-78
2023/07/21 10:09:39;;;;;;;11.98;8.55;;;22.70;69.90;;;;;;4938088;28;92330;-78
2023/07/21 10:12:12;;;;;;;7.65;5.60;;;22.90;69.20;;;;;;4957263;28;88396;-78
2023/07/21 10:14:38;;;;;;;;;;;23.00;64.70;;;;;;4939973;28;88342;-78
2023/07/21 10:17:05;;;;;;;7.35;5.32;;;23.20;65.40;;;;;;4940104;28;88774;-78
2023/07/21 10:19:42;;;;;;;14.35;8.38;;;23.50;69.10;;;;;;4938859;28;90016;-78
2023/07/21 10:22:24;;;;;;;15.43;7.80;;;23.80;65.20;;;;;;4957099;28;87989;-79
2023/07/21 10:24:51;;;;;;;6.67;5.97;;;23.90;62.60;;;;;;4957994;28;87438;-78
2023/07/21 10:27:22;;;;;;;9.65;7.53;;;23.80;63.90;;;;;;4957006;28;87802;-78
2023/07/21 10:30:14;;;;;;;7.30;6.28;;;24.00;61.70;;;;;;4940130;28;91555;-78
2023/07/21 10:32:42;;;;;;;10.43;6.70;;;24.10;64.80;;;;;;4957401;28;88943;-78
2023/07/21 10:35:37;;;;;;;8.05;5.88;;;24.20;61.70;;;;;;4959248;28;87906;-78
2023/07/21 10:38:14;;;;;;;9.40;5.00;;;24.20;61.30;;;;;;4940089;28;90296;-78
2023/07/21 10:40:45;;;;;;;7.57;5.90;;;24.30;62.80;;;;;;4957727;28;89210;-78
2023/07/21 10:43:11;;;;;;;5.28;4.50;;;24.50;62.30;;;;;;4940050;28;92126;-78
2023/07/21 10:45:37;;;;;;;5.15;4.03;;;24.60;59.40;;;;;;4957809;28;87611;-78
2023/07/21 10:48:16;;;;;;;9.23;6.13;;;24.70;58.20;;;;;;4958900;28;87641;-78
2023/07/21 10:50:51;;;;;;;6.25;4.70;;;24.60;57.70;;;;;;4958369;28;93107;-78
2023/07/21 10:53:17;;;;;;;7.38;4.40;;;24.60;59.00;;;;;;4956404;28;87845;-77
2023/07/21 10:55:42;;;;;;;4.28;3.63;;;24.50;58.50;;;;;;4929774;28;87617;-77
2023/07/21 10:58:08;;;;;;;7.47;4.50;;;24.50;59.20;;;;;;4937635;28;90255;-77
2023/07/21 11:00:49;;;;;;;4.10;3.55;;;24.40;58.40;;;;;;4937377;28;89340;-77
2023/07/21 11:03:16;;;;;;;4.03;2.78;;;24.20;57.80;;;;;;4938019;28;89900;-77
2023/07/21 11:05:42;;;;;;;2.90;2.35;;;24.20;56.90;;;;;;4954298;28;89029;-77
2023/07/21 11:08:36;;;;;;;6.03;2.58;;;24.10;55.90;;;;;;4937870;28;88900;-77
2023/07/21 11:11:02;;;;;;;4.93;2.65;;;23.90;56.80;;;;;;4951380;28;88406;-77
2023/07/21 11:13:27;;;;;;;4.07;2.10;;;23.80;56.90;;;;;;4953453;28;87561;-78
2023/07/21 11:15:54;;;;;;;2.38;2.15;;;23.70;57.50;;;;;;4944068;28;87866;-78
2023/07/21 11:18:23;;;;;;;4.35;2.13;;;23.60;58.30;;;;;;4954550;28;87754;-77
2023/07/21 11:20:53;;;;;;;3.67;2.67;;;23.50;58.10;;;;;;4957010;28;87744;-77
2023/07/21 11:23:21;;;;;;;5.70;2.95;;;23.40;58.80;;;;;;4956224;28;89402;-77
2023/07/21 11:26:19;;;;;;;7.00;2.95;;;23.30;60.20;;;;;;4938006;28;87288;-77
2023/07/21 11:28:45;;;;;;;3.35;2.92;;;23.30;60.30;;;;;;4901243;28;87535;-77
2023/07/21 11:31:12;;;;;;;4.70;2.67;;;23.30;61.50;;;;;;4955291;28;88687;-78
2023/07/21 11:33:49;;;;;;;5.32;2.92;;;23.30;60.00;;;;;;4954867;28;89356;-77
2023/07/21 11:36:17;;;;;;;3.30;2.95;;;23.30;60.80;;;;;;4956361;28;87617;-78
2023/07/21 11:39:06;;;;;;;3.38;2.38;;;23.20;60.40;;;;;;4955536;28;92060;-77
2023/07/21 11:41:48;;;;;;;4.38;3.42;;;23.20;62.10;;;;;;4937738;28;89799;-78
2023/07/21 11:44:28;;;;;;;5.47;3.75;;;23.30;62.50;;;;;;4937950;28;90517;-77
2023/07/21 11:47:09;;;;;;;4.53;3.45;;;23.20;62.20;;;;;;4938093;28;87861;-77
2023/07/21 11:49:44;;;;;;;9.65;4.78;;;23.20;63.50;;;;;;4956130;28;87031;-78
2023/07/21 11:52:11;;;;;;;7.13;5.13;;;23.10;64.00;;;;;;4936036;28;91680;-77
2023/07/21 11:54:42;;;;;;;5.25;3.78;;;23.00;64.00;;;;;;4956397;28;88867;-77
2023/07/21 11:57:12;;;;;;;7.03;5.75;;;22.90;66.60;;;;;;4956619;28;89067;-77
2023/07/21 11:59:37;;;;;;;6.50;5.80;;;22.70;66.30;;;;;;4937471;28;88959;-78
2023/07/21 12:02:06;;;;;;;7.63;5.85;;;22.20;68.50;;;;;;4953653;28;88060;-78
2023/07/21 12:04:33;;;;;;;7.28;6.15;;;21.80;71.10;;;;;;4954767;28;87623;-78
2023/07/21 12:07:02;;;;;;;5.68;5.18;;;21.50;73.00;;;;;;4955115;28;87683;-78
2023/07/21 12:09:28;;;;;;;7.07;5.10;;;21.30;73.10;;;;;;4937096;28;90507;-78
2023/07/21 12:11:55;;;;;;;10.60;5.57;;;21.10;74.40;;;;;;4937349;28;92219;-78
2023/07/21 12:14:21;;;;;;;7.07;5.78;;;21.00;75.10;;;;;;4954446;28;86863;-77
2023/07/21 12:16:46;;;;;;;8.57;5.18;;;20.80;75.30;;;;;;4937054;28;87120;-78
2023/07/21 12:19:14;;;;;;;8.55;6.07;;;20.70;76.60;;;;;;4955768;28;87459;-78
2023/07/21 12:21:41;;;;;;;6.10;4.65;;;20.60;78.90;;;;;;4954620;28;89611;-78
2023/07/21 12:24:06;;;;;;;7.38;6.40;;;20.40;78.90;;;;;;4956369;28;89749;-78
2023/07/21 12:26:32;;;;;;;9.45;7.10;;;20.30;80.00;;;;;;4956822;28;87317;-78
2023/07/21 12:28:58;;;;;;;10.88;7.43;;;20.10;81.10;;;;;;4958837;28;87481;-78
2023/07/21 12:31:24;;;;;;;11.18;6.60;;;20.00;82.30;;;;;;4957478;28;87977;-78
2023/07/21 12:33:49;;;;;;;8.35;6.50;;;19.80;82.80;;;;;;4930772;28;89351;-77
2023/07/21 12:36:16;;;;;;;9.23;7.07;;;19.60;82.50;;;;;;4959797;28;87510;-77